sensor_id;sensor_type;location;lat;lon;timestamp;P1;durP1;ratioP1;P2;durP2;ratioP2
25127;SDS011;13107;51.304;6.866;2023-11-19T00:02:53;4.50;;;3.72;;
25127;SDS011;13107;51.304;6.866;2023-11-19T00:06:55;5.93;;;3.50;;
25127;SDS011;13107;51.304;6.866;2023-11-19T00:10:58;4.25;;;3.28;;
25127;SDS011;13107;51.304;6.866;2023-11-19T00:15:02;5.15;;;3.25;;
25127;SDS011;13107;51.304;6.866;2023-11-19T00:19:04;4.20;;;3.10;;
25127;SDS011;13107;51.304;6.866;2023-11-19T00:23:06;5.18;;;3.30;;
25127;SDS011;13107;51.304;6.866;2023-11-19T00:27:09;6.90;;;2.97;;
25127;SDS011;13107;51.304;6.866;2023-11-19T00:31:10;4.00;;;2.90;;
25127;SDS011;13107;51.304;6.866;2023-11-19T00:35:12;5.72;;;3.15;;
25127;SDS011;13107;51.304;6.866;2023-11-19T00:39:17;4.87;;;2.97;;
25127;SDS011;13107;51.304;6.866;2023-11-19T00:43:19;5.93;;;2.62;;
25127;SDS011;13107;51.304;6.866;2023-11-19T00:47:23;5.97;;;2.70;;
25127;SDS011;13107;51.304;6.866;2023-11-19T00:51:25;4.65;;;3.10;;
25127;SDS011;13107;51.304;6.866;2023-11-19T00:55:27;4.57;;;2.75;;
25127;SDS011;13107;51.304;6.866;2023-11-19T00:59:29;5.53;;;2.90;;
25127;SDS011;13107;51.304;6.866;2023-11-19T01:03:31;6.87;;;2.92;;
25127;SDS011;13107;51.304;6.866;2023-11-19T01:07:34;5.75;;;2.70;;
25127;SDS011;13107;51.304;6.866;2023-11-19T01:11:36;3.58;;;2.37;;
25127;SDS011;13107;51.304;6.866;2023-11-19T01:15:38;3.15;;;2.45;;
25127;SDS011;13107;51.304;6.866;2023-11-19T01:19:41;3.45;;;2.55;;
25127;SDS011;13107;51.304;6.866;2023-11-19T01:23:43;3.78;;;2.33;;
25127;SDS011;13107;51.304;6.866;2023-11-19T01:27:45;3.70;;;2.35;;
25127;SDS011;13107;51.304;6.866;2023-11-19T01:31:47;4.15;;;2.42;;
25127;SDS011;13107;51.304;6.866;2023-11-19T01:35:48;3.55;;;1.37;;
25127;SDS011;13107;51.304;6.866;2023-11-19T01:39:50;2.28;;;1.25;;
25127;SDS011;13107;51.304;6.866;2023-11-19T01:43:55;2.00;;;1.27;;
25127;SDS011;13107;51.304;6.866;2023-11-19T01:47:57;3.22;;;0.90;;
25127;SDS011;13107;51.304;6.866;2023-11-19T01:52:00;2.00;;;0.95;;
25127;SDS011;13107;51.304;6.866;2023-11-19T01:56:02;3.08;;;0.80;;
25127;SDS011;13107;51.304;6.866;2023-11-19T02:00:06;1.90;;;0.75;;
25127;SDS011;13107;51.304;6.866;2023-11-19T02:04:12;3.37;;;1.00;;
25127;SDS011;13107;51.304;6.866;2023-11-19T02:08:15;1.45;;;0.68;;
25127;SDS011;13107;51.304;6.866;2023-11-19T02:12:17;3.72;;;0.82;;
25127;SDS011;13107;51.304;6.866;2023-11-19T02:16:21;3.47;;;1.20;;
25127;SDS011;13107;51.304;6.866;2023-11-19T02:20:23;5.37;;;1.20;;
25127;SDS011;13107;51.304;6.866;2023-11-19T02:24:27;3.28;;;1.20;;
25127;SDS011;13107;51.304;6.866;2023-11-19T02:28:33;2.12;;;0.93;;
25127;SDS011;13107;51.304;6.866;2023-11-19T02:32:36;4.68;;;1.02;;
25127;SDS011;13107;51.304;6.866;2023-11-19T02:36:41;3.28;;;1.00;;
25127;SDS011;13107;51.304;6.866;2023-11-19T02:40:43;3.62;;;1.80;;
25127;SDS011;13107;51.304;6.866;2023-11-19T02:44:45;3.20;;;1.10;;
25127;SDS011;13107;51.304;6.866;2023-11-19T02:48:47;6.40;;;1.52;;
25127;SDS011;13107;51.304;6.866;2023-11-19T02:52:49;6.80;;;1.73;;
25127;SDS011;13107;51.304;6.866;2023-11-19T02:56:51;7.18;;;1.62;;
25127;SDS011;13107;51.304;6.866;2023-11-19T03:00:56;10.88;;;2.10;;
25127;SDS011;13107;51.304;6.866;2023-11-19T03:04:59;8.98;;;2.33;;
25127;SDS011;13107;51.304;6.866;2023-11-19T03:09:01;11.68;;;1.75;;
25127;SDS011;13107;51.304;6.866;2023-11-19T03:13:10;9.90;;;2.33;;
25127;SDS011;13107;51.304;6.866;2023-11-19T03:17:15;11.60;;;3.00;;
25127;SDS011;13107;51.304;6.866;2023-11-19T03:21:16;11.45;;;2.12;;
25127;SDS011;13107;51.304;6.866;2023-11-19T03:25:18;12.63;;;2.28;;
25127;SDS011;13107;51.304;6.866;2023-11-19T03:29:20;8.45;;;1.85;;
25127;SDS011;13107;51.304;6.866;2023-11-19T03:33:22;11.18;;;2.30;;
25127;SDS011;13107;51.304;6.866;2023-11-19T03:37:24;8.35;;;1.60;;
25127;SDS011;13107;51.304;6.866;2023-11-19T03:41:26;9.45;;;2.95;;
25127;SDS011;13107;51.304;6.866;2023-11-19T03:45:28;11.35;;;2.20;;
25127;SDS011;13107;51.304;6.866;2023-11-19T03:49:30;10.15;;;2.30;;
25127;SDS011;13107;51.304;6.866;2023-11-19T03:53:32;13.18;;;1.92;;
25127;SDS011;13107;51.304;6.866;2023-11-19T03:57:34;15.50;;;2.50;;
25127;SDS011;13107;51.304;6.866;2023-11-19T04:01:36;13.95;;;2.42;;
25127;SDS011;13107;51.304;6.866;2023-11-19T04:05:38;10.35;;;1.75;;
25127;SDS011;13107;51.304;6.866;2023-11-19T04:09:40;17.50;;;2.40;;
25127;SDS011;13107;51.304;6.866;2023-11-19T04:13:42;17.77;;;2.75;;
25127;SDS011;13107;51.304;6.866;2023-11-19T04:17:43;10.98;;;1.90;;
25127;SDS011;13107;51.304;6.866;2023-11-19T04:21:46;15.13;;;2.50;;
25127;SDS011;13107;51.304;6.866;2023-11-19T04:25:48;14.02;;;2.42;;
25127;SDS011;13107;51.304;6.866;2023-11-19T04:29:49;15.48;;;2.28;;
25127;SDS011;13107;51.304;6.866;2023-11-19T04:33:52;20.77;;;2.95;;
25127;SDS011;13107;51.304;6.866;2023-11-19T04:37:55;15.40;;;2.78;;
25127;SDS011;13107;51.304;6.866;2023-11-19T04:41:58;14.55;;;2.50;;
25127;SDS011;13107;51.304;6.866;2023-11-19T04:46:03;21.60;;;2.67;;
25127;SDS011;13107;51.304;6.866;2023-11-19T04:50:05;15.80;;;2.08;;
25127;SDS011;13107;51.304;6.866;2023-11-19T04:54:10;16.77;;;3.60;;
25127;SDS011;13107;51.304;6.866;2023-11-19T04:58:12;18.27;;;2.83;;
25127;SDS011;13107;51.304;6.866;2023-11-19T05:02:14;18.83;;;2.47;;
25127;SDS011;13107;51.304;6.866;2023-11-19T05:06:17;15.05;;;2.47;;
25127;SDS011;13107;51.304;6.866;2023-11-19T05:10:18;20.30;;;2.90;;
25127;SDS011;13107;51.304;6.866;2023-11-19T05:14:21;16.92;;;2.28;;
25127;SDS011;13107;51.304;6.866;2023-11-19T05:18:23;19.87;;;2.72;;
25127;SDS011;13107;51.304;6.866;2023-11-19T05:22:25;20.30;;;3.37;;
25127;SDS011;13107;51.304;6.866;2023-11-19T05:26:27;12.60;;;2.50;;
25127;SDS011;13107;51.304;6.866;2023-11-19T05:30:29;14.95;;;2.58;;
25127;SDS011;13107;51.304;6.866;2023-11-19T05:34:30;16.55;;;3.12;;
25127;SDS011;13107;51.304;6.866;2023-11-19T05:38:32;20.15;;;3.03;;
25127;SDS011;13107;51.304;6.866;2023-11-19T05:42:34;21.35;;;3.20;;
25127;SDS011;13107;51.304;6.866;2023-11-19T05:46:38;21.48;;;3.12;;
25127;SDS011;13107;51.304;6.866;2023-11-19T05:50:43;20.55;;;3.30;;
25127;SDS011;13107;51.304;6.866;2023-11-19T05:54:45;18.85;;;2.42;;
25127;SDS011;13107;51.304;6.866;2023-11-19T05:58:52;18.58;;;3.33;;
25127;SDS011;13107;51.304;6.866;2023-11-19T06:02:54;16.05;;;2.53;;
25127;SDS011;13107;51.304;6.866;2023-11-19T06:06:56;15.70;;;3.08;;
25127;SDS011;13107;51.304;6.866;2023-11-19T06:10:58;19.50;;;3.37;;
25127;SDS011;13107;51.304;6.866;2023-11-19T06:15:01;12.68;;;2.72;;
25127;SDS011;13107;51.304;6.866;2023-11-19T06:19:03;19.40;;;3.28;;
25127;SDS011;13107;51.304;6.866;2023-11-19T06:23:05;19.62;;;3.05;;
25127;SDS011;13107;51.304;6.866;2023-11-19T06:27:08;23.83;;;3.95;;
25127;SDS011;13107;51.304;6.866;2023-11-19T06:31:09;17.20;;;2.60;;
25127;SDS011;13107;51.304;6.866;2023-11-19T06:35:11;19.87;;;3.40;;
25127;SDS011;13107;51.304;6.866;2023-11-19T06:39:15;13.68;;;2.30;;
25127;SDS011;13107;51.304;6.866;2023-11-19T06:43:16;20.77;;;2.95;;
25127;SDS011;13107;51.304;6.866;2023-11-19T06:47:19;18.80;;;3.10;;
25127;SDS011;13107;51.304;6.866;2023-11-19T06:51:20;20.45;;;3.62;;
25127;SDS011;13107;51.304;6.866;2023-11-19T06:55:22;16.85;;;2.35;;
25127;SDS011;13107;51.304;6.866;2023-11-19T06:59:24;23.02;;;2.60;;
25127;SDS011;13107;51.304;6.866;2023-11-19T07:03:26;17.85;;;3.12;;
25127;SDS011;13107;51.304;6.866;2023-11-19T07:07:28;18.37;;;3.28;;
25127;SDS011;13107;51.304;6.866;2023-11-19T07:11:29;17.60;;;3.08;;
25127;SDS011;13107;51.304;6.866;2023-11-19T07:15:31;19.85;;;3.75;;
25127;SDS011;13107;51.304;6.866;2023-11-19T07:19:33;22.77;;;3.67;;
25127;SDS011;13107;51.304;6.866;2023-11-19T07:23:37;18.77;;;2.72;;
25127;SDS011;13107;51.304;6.866;2023-11-19T07:27:39;21.52;;;3.10;;
25127;SDS011;13107;51.304;6.866;2023-11-19T07:31:41;17.27;;;3.53;;
25127;SDS011;13107;51.304;6.866;2023-11-19T07:35:45;19.33;;;2.58;;
25127;SDS011;13107;51.304;6.866;2023-11-19T07:39:47;26.90;;;3.25;;
25127;SDS011;13107;51.304;6.866;2023-11-19T07:43:48;18.42;;;3.25;;
25127;SDS011;13107;51.304;6.866;2023-11-19T07:47:51;22.52;;;3.33;;
25127;SDS011;13107;51.304;6.866;2023-11-19T07:51:53;20.83;;;2.95;;
25127;SDS011;13107;51.304;6.866;2023-11-19T07:55:55;18.48;;;3.47;;
25127;SDS011;13107;51.304;6.866;2023-11-19T07:59:57;24.20;;;3.22;;
25127;SDS011;13107;51.304;6.866;2023-11-19T08:03:59;26.77;;;3.78;;
25127;SDS011;13107;51.304;6.866;2023-11-19T08:08:03;22.42;;;3.50;;
25127;SDS011;13107;51.304;6.866;2023-11-19T08:12:05;19.08;;;3.10;;
25127;SDS011;13107;51.304;6.866;2023-11-19T08:16:08;26.08;;;3.25;;
25127;SDS011;13107;51.304;6.866;2023-11-19T08:20:11;22.67;;;3.45;;
25127;SDS011;13107;51.304;6.866;2023-11-19T08:24:12;20.73;;;3.10;;
25127;SDS011;13107;51.304;6.866;2023-11-19T08:28:14;22.35;;;3.08;;
25127;SDS011;13107;51.304;6.866;2023-11-19T08:32:16;30.35;;;3.67;;
25127;SDS011;13107;51.304;6.866;2023-11-19T08:36:18;27.42;;;3.08;;
25127;SDS011;13107;51.304;6.866;2023-11-19T08:40:20;25.48;;;3.85;;
25127;SDS011;13107;51.304;6.866;2023-11-19T08:44:22;21.67;;;3.72;;
25127;SDS011;13107;51.304;6.866;2023-11-19T08:48:24;28.55;;;3.85;;
25127;SDS011;13107;51.304;6.866;2023-11-19T08:52:27;18.90;;;3.60;;
25127;SDS011;13107;51.304;6.866;2023-11-19T08:56:31;22.27;;;3.37;;
25127;SDS011;13107;51.304;6.866;2023-11-19T09:00:34;21.33;;;4.35;;
25127;SDS011;13107;51.304;6.866;2023-11-19T09:04:36;25.95;;;3.78;;
25127;SDS011;13107;51.304;6.866;2023-11-19T09:08:38;21.75;;;3.05;;
25127;SDS011;13107;51.304;6.866;2023-11-19T09:12:40;22.30;;;3.28;;
25127;SDS011;13107;51.304;6.866;2023-11-19T09:16:41;20.95;;;4.10;;
25127;SDS011;13107;51.304;6.866;2023-11-19T09:20:43;20.88;;;3.97;;
25127;SDS011;13107;51.304;6.866;2023-11-19T09:24:46;18.85;;;3.37;;
25127;SDS011;13107;51.304;6.866;2023-11-19T09:28:49;21.92;;;3.83;;
25127;SDS011;13107;51.304;6.866;2023-11-19T09:32:51;25.42;;;4.80;;
25127;SDS011;13107;51.304;6.866;2023-11-19T09:36:52;24.17;;;3.37;;
25127;SDS011;13107;51.304;6.866;2023-11-19T09:40:54;21.67;;;3.33;;
25127;SDS011;13107;51.304;6.866;2023-11-19T09:44:56;23.00;;;3.97;;
25127;SDS011;13107;51.304;6.866;2023-11-19T09:49:00;25.15;;;3.80;;
25127;SDS011;13107;51.304;6.866;2023-11-19T09:53:03;23.65;;;3.78;;
25127;SDS011;13107;51.304;6.866;2023-11-19T09:57:05;22.85;;;3.15;;
25127;SDS011;13107;51.304;6.866;2023-11-19T10:01:09;24.25;;;3.60;;
25127;SDS011;13107;51.304;6.866;2023-11-19T10:09:18;27.55;;;4.35;;
25127;SDS011;13107;51.304;6.866;2023-11-19T10:13:23;24.87;;;3.28;;
25127;SDS011;13107;51.304;6.866;2023-11-19T10:17:33;18.52;;;3.20;;
25127;SDS011;13107;51.304;6.866;2023-11-19T10:21:36;25.20;;;3.28;;
25127;SDS011;13107;51.304;6.866;2023-11-19T10:25:37;27.45;;;4.18;;
25127;SDS011;13107;51.304;6.866;2023-11-19T10:29:39;21.48;;;3.67;;
25127;SDS011;13107;51.304;6.866;2023-11-19T10:33:41;23.42;;;4.12;;
25127;SDS011;13107;51.304;6.866;2023-11-19T10:37:45;22.45;;;2.97;;
25127;SDS011;13107;51.304;6.866;2023-11-19T10:41:47;28.10;;;3.37;;
25127;SDS011;13107;51.304;6.866;2023-11-19T10:45:48;23.35;;;3.85;;
25127;SDS011;13107;51.304;6.866;2023-11-19T10:49:50;18.90;;;3.28;;
25127;SDS011;13107;51.304;6.866;2023-11-19T10:53:52;16.67;;;2.90;;
25127;SDS011;13107;51.304;6.866;2023-11-19T10:58:01;22.95;;;3.35;;
25127;SDS011;13107;51.304;6.866;2023-11-19T11:02:06;27.33;;;3.45;;
25127;SDS011;13107;51.304;6.866;2023-11-19T11:06:10;22.85;;;3.25;;
25127;SDS011;13107;51.304;6.866;2023-11-19T11:10:14;22.20;;;3.25;;
25127;SDS011;13107;51.304;6.866;2023-11-19T11:14:18;23.98;;;4.28;;
25127;SDS011;13107;51.304;6.866;2023-11-19T11:18:21;16.15;;;2.75;;
25127;SDS011;13107;51.304;6.866;2023-11-19T11:22:26;23.73;;;3.67;;
25127;SDS011;13107;51.304;6.866;2023-11-19T11:30:55;18.92;;;3.42;;
25127;SDS011;13107;51.304;6.866;2023-11-19T11:39:36;18.08;;;2.58;;
25127;SDS011;13107;51.304;6.866;2023-11-19T11:43:59;19.00;;;3.50;;
25127;SDS011;13107;51.304;6.866;2023-11-19T11:52:12;16.12;;;2.75;;
25127;SDS011;13107;51.304;6.866;2023-11-19T11:56:17;14.63;;;2.70;;
25127;SDS011;13107;51.304;6.866;2023-11-19T12:00:22;15.65;;;2.37;;
25127;SDS011;13107;51.304;6.866;2023-11-19T12:04:31;17.10;;;2.80;;
25127;SDS011;13107;51.304;6.866;2023-11-19T12:08:34;15.45;;;3.08;;
25127;SDS011;13107;51.304;6.866;2023-11-19T12:12:53;18.48;;;2.62;;
25127;SDS011;13107;51.304;6.866;2023-11-19T12:16:55;12.37;;;2.78;;
25127;SDS011;13107;51.304;6.866;2023-11-19T12:21:05;18.05;;;2.97;;
25127;SDS011;13107;51.304;6.866;2023-11-19T12:25:07;15.98;;;3.08;;
25127;SDS011;13107;51.304;6.866;2023-11-19T12:29:10;18.08;;;2.12;;
25127;SDS011;13107;51.304;6.866;2023-11-19T12:33:12;14.43;;;2.40;;
25127;SDS011;13107;51.304;6.866;2023-11-19T12:37:15;15.57;;;2.70;;
25127;SDS011;13107;51.304;6.866;2023-11-19T12:41:17;15.85;;;2.15;;
25127;SDS011;13107;51.304;6.866;2023-11-19T12:45:21;19.70;;;2.65;;
25127;SDS011;13107;51.304;6.866;2023-11-19T12:49:25;20.45;;;2.72;;
25127;SDS011;13107;51.304;6.866;2023-11-19T12:53:27;13.43;;;1.98;;
25127;SDS011;13107;51.304;6.866;2023-11-19T12:57:36;13.00;;;2.30;;
25127;SDS011;13107;51.304;6.866;2023-11-19T13:01:39;14.63;;;2.12;;
25127;SDS011;13107;51.304;6.866;2023-11-19T13:05:42;15.13;;;2.10;;
25127;SDS011;13107;51.304;6.866;2023-11-19T13:09:44;10.43;;;2.10;;
25127;SDS011;13107;51.304;6.866;2023-11-19T13:17:58;17.10;;;2.62;;
25127;SDS011;13107;51.304;6.866;2023-11-19T13:22:01;13.48;;;2.97;;
25127;SDS011;13107;51.304;6.866;2023-11-19T13:26:02;14.82;;;2.50;;
25127;SDS011;13107;51.304;6.866;2023-11-19T13:30:05;20.70;;;3.60;;
25127;SDS011;13107;51.304;6.866;2023-11-19T13:34:08;19.62;;;3.22;;
25127;SDS011;13107;51.304;6.866;2023-11-19T13:38:10;15.00;;;2.03;;
25127;SDS011;13107;51.304;6.866;2023-11-19T13:42:12;15.20;;;2.42;;
25127;SDS011;13107;51.304;6.866;2023-11-19T13:46:14;14.48;;;2.45;;
25127;SDS011;13107;51.304;6.866;2023-11-19T13:50:16;11.07;;;2.20;;
25127;SDS011;13107;51.304;6.866;2023-11-19T13:54:18;12.13;;;2.15;;
25127;SDS011;13107;51.304;6.866;2023-11-19T13:58:21;16.83;;;2.90;;
25127;SDS011;13107;51.304;6.866;2023-11-19T14:02:23;17.73;;;3.17;;
25127;SDS011;13107;51.304;6.866;2023-11-19T14:06:25;14.27;;;2.40;;
25127;SDS011;13107;51.304;6.866;2023-11-19T14:10:26;15.57;;;2.65;;
25127;SDS011;13107;51.304;6.866;2023-11-19T14:14:29;15.70;;;3.17;;
25127;SDS011;13107;51.304;6.866;2023-11-19T14:18:33;16.83;;;3.08;;
25127;SDS011;13107;51.304;6.866;2023-11-19T14:22:36;16.27;;;2.75;;
25127;SDS011;13107;51.304;6.866;2023-11-19T14:26:38;16.30;;;2.95;;
25127;SDS011;13107;51.304;6.866;2023-11-19T14:30:40;16.42;;;3.00;;
25127;SDS011;13107;51.304;6.866;2023-11-19T14:34:42;17.15;;;2.90;;
25127;SDS011;13107;51.304;6.866;2023-11-19T14:38:45;12.05;;;3.08;;
25127;SDS011;13107;51.304;6.866;2023-11-19T14:42:46;18.08;;;2.25;;
25127;SDS011;13107;51.304;6.866;2023-11-19T14:46:48;13.18;;;2.30;;
25127;SDS011;13107;51.304;6.866;2023-11-19T14:50:50;17.30;;;2.75;;
25127;SDS011;13107;51.304;6.866;2023-11-19T14:54:52;15.40;;;2.30;;
25127;SDS011;13107;51.304;6.866;2023-11-19T14:58:55;21.65;;;3.37;;
25127;SDS011;13107;51.304;6.866;2023-11-19T15:02:57;17.37;;;3.00;;
25127;SDS011;13107;51.304;6.866;2023-11-19T15:06:59;16.27;;;2.85;;
25127;SDS011;13107;51.304;6.866;2023-11-19T15:11:01;17.17;;;3.00;;
25127;SDS011;13107;51.304;6.866;2023-11-19T15:15:04;18.35;;;2.97;;
25127;SDS011;13107;51.304;6.866;2023-11-19T15:19:07;15.27;;;2.85;;
25127;SDS011;13107;51.304;6.866;2023-11-19T15:23:09;17.10;;;2.75;;
25127;SDS011;13107;51.304;6.866;2023-11-19T15:27:11;25.90;;;3.25;;
25127;SDS011;13107;51.304;6.866;2023-11-19T15:31:15;14.73;;;3.05;;
25127;SDS011;13107;51.304;6.866;2023-11-19T15:35:17;15.77;;;3.55;;
25127;SDS011;13107;51.304;6.866;2023-11-19T15:39:20;14.10;;;2.60;;
25127;SDS011;13107;51.304;6.866;2023-11-19T15:43:22;16.30;;;2.58;;
25127;SDS011;13107;51.304;6.866;2023-11-19T15:47:23;15.52;;;2.65;;
25127;SDS011;13107;51.304;6.866;2023-11-19T15:51:25;18.02;;;3.30;;
25127;SDS011;13107;51.304;6.866;2023-11-19T15:55:27;20.45;;;3.17;;
25127;SDS011;13107;51.304;6.866;2023-11-19T15:59:29;17.85;;;3.15;;
25127;SDS011;13107;51.304;6.866;2023-11-19T16:03:32;19.58;;;2.78;;
25127;SDS011;13107;51.304;6.866;2023-11-19T16:07:52;15.18;;;2.47;;
25127;SDS011;13107;51.304;6.866;2023-11-19T16:11:54;15.32;;;3.22;;
25127;SDS011;13107;51.304;6.866;2023-11-19T16:15:57;15.15;;;2.53;;
25127;SDS011;13107;51.304;6.866;2023-11-19T16:19:59;14.55;;;2.50;;
25127;SDS011;13107;51.304;6.866;2023-11-19T16:24:01;15.35;;;2.92;;
25127;SDS011;13107;51.304;6.866;2023-11-19T16:28:03;14.60;;;2.80;;
25127;SDS011;13107;51.304;6.866;2023-11-19T16:32:05;20.08;;;3.15;;
25127;SDS011;13107;51.304;6.866;2023-11-19T16:36:07;22.33;;;3.28;;
25127;SDS011;13107;51.304;6.866;2023-11-19T16:40:11;13.93;;;2.65;;
25127;SDS011;13107;51.304;6.866;2023-11-19T16:44:13;22.77;;;2.53;;
25127;SDS011;13107;51.304;6.866;2023-11-19T16:48:15;19.02;;;2.78;;
25127;SDS011;13107;51.304;6.866;2023-11-19T16:52:17;17.08;;;2.95;;
25127;SDS011;13107;51.304;6.866;2023-11-19T16:56:18;20.15;;;2.90;;
25127;SDS011;13107;51.304;6.866;2023-11-19T17:00:21;21.87;;;3.08;;
25127;SDS011;13107;51.304;6.866;2023-11-19T17:04:23;24.30;;;2.95;;
25127;SDS011;13107;51.304;6.866;2023-11-19T17:08:25;24.23;;;4.80;;
25127;SDS011;13107;51.304;6.866;2023-11-19T17:12:27;13.25;;;3.00;;
25127;SDS011;13107;51.304;6.866;2023-11-19T17:16:30;26.10;;;4.82;;
25127;SDS011;13107;51.304;6.866;2023-11-19T17:20:31;17.27;;;3.47;;
25127;SDS011;13107;51.304;6.866;2023-11-19T17:24:38;16.87;;;3.65;;
25127;SDS011;13107;51.304;6.866;2023-11-19T17:28:40;12.65;;;3.45;;
25127;SDS011;13107;51.304;6.866;2023-11-19T17:32:42;20.40;;;3.40;;
25127;SDS011;13107;51.304;6.866;2023-11-19T17:36:44;24.12;;;3.12;;
25127;SDS011;13107;51.304;6.866;2023-11-19T17:40:46;18.20;;;3.25;;
25127;SDS011;13107;51.304;6.866;2023-11-19T17:44:48;23.92;;;3.45;;
25127;SDS011;13107;51.304;6.866;2023-11-19T17:48:50;15.63;;;2.62;;
25127;SDS011;13107;51.304;6.866;2023-11-19T17:52:53;24.58;;;4.05;;
25127;SDS011;13107;51.304;6.866;2023-11-19T17:56:55;18.83;;;3.05;;
25127;SDS011;13107;51.304;6.866;2023-11-19T18:00:58;26.95;;;3.37;;
25127;SDS011;13107;51.304;6.866;2023-11-19T18:05:00;12.57;;;2.35;;
25127;SDS011;13107;51.304;6.866;2023-11-19T18:09:02;20.15;;;3.53;;
25127;SDS011;13107;51.304;6.866;2023-11-19T18:13:05;22.75;;;3.10;;
25127;SDS011;13107;51.304;6.866;2023-11-19T18:17:08;19.58;;;3.10;;
25127;SDS011;13107;51.304;6.866;2023-11-19T18:21:12;22.83;;;3.40;;
25127;SDS011;13107;51.304;6.866;2023-11-19T18:25:14;21.12;;;3.35;;
25127;SDS011;13107;51.304;6.866;2023-11-19T18:29:19;16.60;;;2.58;;
25127;SDS011;13107;51.304;6.866;2023-11-19T18:33:22;15.13;;;3.40;;
25127;SDS011;13107;51.304;6.866;2023-11-19T18:37:24;17.30;;;2.53;;
25127;SDS011;13107;51.304;6.866;2023-11-19T18:41:28;12.48;;;2.22;;
25127;SDS011;13107;51.304;6.866;2023-11-19T18:45:30;14.23;;;2.53;;
25127;SDS011;13107;51.304;6.866;2023-11-19T18:49:31;14.23;;;2.33;;
25127;SDS011;13107;51.304;6.866;2023-11-19T18:53:33;14.07;;;2.42;;
25127;SDS011;13107;51.304;6.866;2023-11-19T18:57:35;19.20;;;2.87;;
25127;SDS011;13107;51.304;6.866;2023-11-19T19:01:37;17.70;;;3.08;;
25127;SDS011;13107;51.304;6.866;2023-11-19T19:05:39;14.15;;;1.92;;
25127;SDS011;13107;51.304;6.866;2023-11-19T19:09:41;14.82;;;2.47;;
25127;SDS011;13107;51.304;6.866;2023-11-19T19:13:43;13.88;;;2.33;;
25127;SDS011;13107;51.304;6.866;2023-11-19T19:17:46;15.73;;;2.87;;
25127;SDS011;13107;51.304;6.866;2023-11-19T19:21:50;17.20;;;2.40;;
25127;SDS011;13107;51.304;6.866;2023-11-19T19:25:51;19.62;;;2.85;;
25127;SDS011;13107;51.304;6.866;2023-11-19T19:29:55;11.32;;;2.45;;
25127;SDS011;13107;51.304;6.866;2023-11-19T19:33:57;17.77;;;2.62;;
25127;SDS011;13107;51.304;6.866;2023-11-19T19:37:59;15.35;;;2.80;;
25127;SDS011;13107;51.304;6.866;2023-11-19T19:42:01;13.93;;;3.40;;
25127;SDS011;13107;51.304;6.866;2023-11-19T19:46:05;16.87;;;2.83;;
25127;SDS011;13107;51.304;6.866;2023-11-19T19:50:10;22.83;;;3.80;;
25127;SDS011;13107;51.304;6.866;2023-11-19T19:54:12;20.98;;;3.40;;
25127;SDS011;13107;51.304;6.866;2023-11-19T19:58:14;18.12;;;2.70;;
25127;SDS011;13107;51.304;6.866;2023-11-19T20:02:19;17.35;;;2.40;;
25127;SDS011;13107;51.304;6.866;2023-11-19T20:06:21;13.43;;;2.75;;
25127;SDS011;13107;51.304;6.866;2023-11-19T20:10:24;11.43;;;1.75;;
25127;SDS011;13107;51.304;6.866;2023-11-19T20:14:27;11.82;;;2.83;;
25127;SDS011;13107;51.304;6.866;2023-11-19T20:18:29;15.77;;;2.25;;
25127;SDS011;13107;51.304;6.866;2023-11-19T20:22:34;11.93;;;2.00;;
25127;SDS011;13107;51.304;6.866;2023-11-19T20:26:36;17.92;;;3.10;;
25127;SDS011;13107;51.304;6.866;2023-11-19T20:30:39;13.77;;;2.17;;
25127;SDS011;13107;51.304;6.866;2023-11-19T20:34:41;15.77;;;2.92;;
25127;SDS011;13107;51.304;6.866;2023-11-19T20:38:43;14.00;;;2.00;;
25127;SDS011;13107;51.304;6.866;2023-11-19T20:42:45;14.57;;;2.00;;
25127;SDS011;13107;51.304;6.866;2023-11-19T20:46:47;16.73;;;1.80;;
25127;SDS011;13107;51.304;6.866;2023-11-19T20:50:50;13.43;;;1.85;;
25127;SDS011;13107;51.304;6.866;2023-11-19T20:54:53;9.85;;;1.80;;
25127;SDS011;13107;51.304;6.866;2023-11-19T20:58:54;9.75;;;1.77;;
25127;SDS011;13107;51.304;6.866;2023-11-19T21:02:56;11.52;;;1.83;;
25127;SDS011;13107;51.304;6.866;2023-11-19T21:06:59;10.07;;;2.10;;
25127;SDS011;13107;51.304;6.866;2023-11-19T21:11:01;11.20;;;1.48;;
25127;SDS011;13107;51.304;6.866;2023-11-19T21:15:03;8.60;;;2.03;;
25127;SDS011;13107;51.304;6.866;2023-11-19T21:19:06;10.55;;;2.25;;
25127;SDS011;13107;51.304;6.866;2023-11-19T21:23:09;16.73;;;2.50;;
25127;SDS011;13107;51.304;6.866;2023-11-19T21:27:11;12.65;;;1.58;;
25127;SDS011;13107;51.304;6.866;2023-11-19T21:31:14;7.37;;;1.45;;
25127;SDS011;13107;51.304;6.866;2023-11-19T21:35:19;8.75;;;1.55;;
25127;SDS011;13107;51.304;6.866;2023-11-19T21:39:20;9.88;;;1.90;;
25127;SDS011;13107;51.304;6.866;2023-11-19T21:43:22;7.22;;;1.45;;
25127;SDS011;13107;51.304;6.866;2023-11-19T21:47:24;7.35;;;1.98;;
25127;SDS011;13107;51.304;6.866;2023-11-19T21:51:26;11.30;;;2.28;;
25127;SDS011;13107;51.304;6.866;2023-11-19T21:55:28;11.05;;;1.77;;
25127;SDS011;13107;51.304;6.866;2023-11-19T21:59:33;13.15;;;1.83;;
25127;SDS011;13107;51.304;6.866;2023-11-19T22:03:35;9.90;;;1.52;;
25127;SDS011;13107;51.304;6.866;2023-11-19T22:07:38;10.23;;;1.80;;
25127;SDS011;13107;51.304;6.866;2023-11-19T22:11:40;9.93;;;1.62;;
25127;SDS011;13107;51.304;6.866;2023-11-19T22:15:42;10.48;;;1.75;;
25127;SDS011;13107;51.304;6.866;2023-11-19T22:19:43;8.45;;;1.60;;
25127;SDS011;13107;51.304;6.866;2023-11-19T22:23:47;8.38;;;1.35;;
25127;SDS011;13107;51.304;6.866;2023-11-19T22:27:49;11.82;;;1.87;;
25127;SDS011;13107;51.304;6.866;2023-11-19T22:31:50;8.57;;;1.70;;
25127;SDS011;13107;51.304;6.866;2023-11-19T22:35:52;8.68;;;1.67;;
25127;SDS011;13107;51.304;6.866;2023-11-19T22:39:54;13.18;;;1.98;;
25127;SDS011;13107;51.304;6.866;2023-11-19T22:43:57;11.77;;;1.90;;
25127;SDS011;13107;51.304;6.866;2023-11-19T22:47:59;7.93;;;1.65;;
25127;SDS011;13107;51.304;6.866;2023-11-19T22:52:02;12.05;;;2.00;;
25127;SDS011;13107;51.304;6.866;2023-11-19T22:56:04;7.50;;;1.37;;
25127;SDS011;13107;51.304;6.866;2023-11-19T23:00:07;10.88;;;1.30;;
25127;SDS011;13107;51.304;6.866;2023-11-19T23:04:18;8.02;;;1.30;;
25127;SDS011;13107;51.304;6.866;2023-11-19T23:08:20;6.28;;;1.77;;
25127;SDS011;13107;51.304;6.866;2023-11-19T23:12:22;5.45;;;1.17;;
25127;SDS011;13107;51.304;6.866;2023-11-19T23:16:24;5.50;;;1.10;;
25127;SDS011;13107;51.304;6.866;2023-11-19T23:20:26;5.28;;;1.30;;
25127;SDS011;13107;51.304;6.866;2023-11-19T23:24:28;5.25;;;1.15;;
25127;SDS011;13107;51.304;6.866;2023-11-19T23:28:31;6.78;;;1.48;;
25127;SDS011;13107;51.304;6.866;2023-11-19T23:32:32;8.70;;;1.40;;
25127;SDS011;13107;51.304;6.866;2023-11-19T23:36:35;11.55;;;1.48;;
25127;SDS011;13107;51.304;6.866;2023-11-19T23:40:37;7.37;;;1.10;;
25127;SDS011;13107;51.304;6.866;2023-11-19T23:44:39;5.15;;;1.80;;
25127;SDS011;13107;51.304;6.866;2023-11-19T23:48:41;6.05;;;1.50;;
25127;SDS011;13107;51.304;6.866;2023-11-19T23:52:46;6.22;;;1.52;;
25127;SDS011;13107;51.304;6.866;2023-11-19T23:56:50;10.38;;;1.70;;
